createdAt,value
2023-08-24T00:00:08.352Z,3.70
2023-08-24T00:01:08.349Z,3.40
2023-08-24T00:02:08.330Z,3.90
2023-08-24T00:03:08.333Z,3.50
2023-08-24T00:04:08.300Z,4.20
2023-08-24T00:05:08.300Z,3.50
2023-08-24T00:06:08.278Z,3.90
2023-08-24T00:07:08.268Z,3.40
2023-08-24T00:08:08.248Z,3.70
2023-08-24T00:09:08.239Z,3.50
2023-08-24T00:10:08.220Z,3.80
2023-08-24T00:11:08.227Z,3.50
2023-08-24T00:12:08.217Z,3.60
2023-08-24T00:13:08.194Z,3.70
2023-08-24T00:14:08.166Z,3.80
2023-08-24T00:15:08.169Z,3.60
2023-08-24T00:16:08.214Z,3.80
2023-08-24T00:17:08.146Z,3.70
2023-08-24T00:18:08.183Z,3.60
2023-08-24T00:19:08.112Z,4.00
2023-08-24T00:20:08.093Z,3.90
2023-08-24T00:21:08.089Z,3.70
2023-08-24T00:22:08.073Z,3.70
2023-08-24T00:23:08.056Z,3.40
2023-08-24T00:24:08.063Z,3.70
2023-08-24T00:25:08.049Z,3.60
2023-08-24T00:26:08.018Z,3.80
2023-08-24T00:27:08.003Z,4.00
2023-08-24T00:28:07.984Z,3.60
2023-08-24T00:29:07.984Z,4.20
2023-08-24T00:30:08.017Z,4.00
2023-08-24T00:31:08.044Z,4.00
2023-08-24T00:32:07.936Z,3.90
2023-08-24T00:33:07.987Z,4.00
2023-08-24T00:34:07.933Z,3.80
2023-08-24T00:35:07.955Z,3.90
2023-08-24T00:36:07.978Z,4.20
2023-08-24T00:37:07.898Z,3.40
2023-08-24T00:38:07.906Z,3.40
2023-08-24T00:39:07.867Z,3.60
2023-08-24T00:40:07.872Z,3.90
2023-08-24T00:41:07.861Z,4.10
2023-08-24T00:42:07.825Z,4.10
2023-08-24T00:43:07.806Z,4.60
2023-08-24T00:44:07.796Z,4.10
2023-08-24T00:45:07.768Z,3.80
2023-08-24T00:46:07.780Z,4.00
2023-08-24T00:47:07.776Z,3.90
2023-08-24T00:48:07.788Z,3.70
2023-08-24T00:49:07.761Z,4.20
2023-08-24T00:50:07.703Z,3.70
2023-08-24T00:51:07.688Z,3.80
2023-08-24T00:52:07.689Z,3.80
2023-08-24T00:53:07.662Z,4.30
2023-08-24T00:54:07.677Z,4.10
2023-08-24T00:55:07.659Z,3.90
2023-08-24T00:56:07.615Z,3.70
2023-08-24T00:57:07.625Z,4.10
2023-08-24T00:58:07.594Z,4.00
2023-08-24T00:59:07.592Z,4.20
2023-08-24T01:00:07.579Z,4.10
2023-08-24T01:01:07.628Z,3.80
2023-08-24T01:02:07.605Z,3.90
2023-08-24T01:03:07.591Z,4.20
2023-08-24T01:04:07.533Z,4.10
2023-08-24T01:05:07.527Z,4.10
2023-08-24T01:06:07.497Z,3.80
2023-08-24T01:07:07.482Z,4.40
2023-08-24T01:08:07.468Z,3.80
2023-08-24T01:09:07.473Z,4.20
2023-08-24T01:10:07.475Z,3.90
2023-08-24T01:11:07.435Z,4.10
2023-08-24T01:12:07.408Z,3.80
2023-08-24T01:13:07.404Z,3.90
2023-08-24T01:14:07.384Z,4.30
2023-08-24T01:15:07.394Z,4.20
2023-08-24T01:16:07.356Z,4.10
2023-08-24T01:17:07.368Z,4.20
2023-08-24T01:18:07.388Z,4.50
2023-08-24T01:19:07.315Z,4.30
2023-08-24T01:20:07.378Z,4.00
2023-08-24T01:21:07.315Z,4.20
2023-08-24T01:22:07.275Z,4.20
2023-08-24T01:23:07.266Z,4.20
2023-08-24T01:24:07.286Z,4.00
2023-08-24T01:25:07.302Z,4.40
2023-08-24T01:26:07.226Z,4.50
2023-08-24T01:27:07.221Z,4.80
2023-08-24T01:28:07.217Z,4.40
2023-08-24T01:29:07.189Z,4.20
2023-08-24T01:30:07.177Z,4.80
2023-08-24T01:31:07.214Z,4.40
2023-08-24T01:32:07.142Z,4.30
2023-08-24T01:33:07.179Z,4.30
2023-08-24T01:34:07.125Z,4.20
2023-08-24T01:35:07.125Z,4.60
2023-08-24T01:36:07.109Z,4.60
2023-08-24T01:37:07.090Z,4.30
2023-08-24T01:38:07.064Z,4.50
2023-08-24T01:39:07.062Z,4.60
2023-08-24T01:40:07.049Z,4.40
2023-08-24T01:41:07.046Z,4.80
2023-08-24T01:42:07.030Z,4.40
2023-08-24T01:43:07.011Z,4.60
2023-08-24T01:44:07.003Z,4.40
2023-08-24T01:45:06.996Z,4.60
2023-08-24T01:46:07.044Z,4.60
2023-08-24T01:47:06.962Z,4.40
2023-08-24T01:48:07.039Z,4.70
2023-08-24T01:49:06.943Z,4.50
2023-08-24T01:50:06.936Z,4.50
2023-08-24T01:51:06.917Z,4.90
2023-08-24T01:52:06.904Z,4.70
2023-08-24T01:53:06.879Z,4.50
2023-08-24T01:54:06.862Z,4.50
2023-08-24T01:55:06.869Z,4.40
2023-08-24T01:56:06.845Z,4.70
2023-08-24T01:57:06.876Z,4.60
2023-08-24T01:58:06.817Z,4.60
2023-08-24T01:59:06.804Z,4.50
2023-08-24T02:00:06.791Z,4.70
2023-08-24T02:01:06.856Z,4.50
2023-08-24T02:02:06.757Z,4.30
2023-08-24T02:03:06.834Z,4.80
2023-08-24T02:04:06.742Z,4.30
2023-08-24T02:05:06.721Z,4.30
2023-08-24T02:06:06.721Z,4.80
2023-08-24T02:07:06.697Z,4.80
2023-08-24T02:08:06.679Z,5.00
2023-08-24T02:09:06.692Z,5.20
2023-08-24T02:10:06.688Z,5.10
2023-08-24T02:11:06.647Z,4.90
2023-08-24T02:12:06.627Z,4.90
2023-08-24T02:13:06.631Z,5.00
2023-08-24T02:14:06.609Z,5.00
2023-08-24T02:15:06.596Z,5.10
2023-08-24T02:16:06.773Z,5.10
2023-08-24T02:17:06.561Z,4.60
2023-08-24T02:18:06.575Z,5.20
2023-08-24T02:19:06.553Z,5.50
2023-08-24T02:20:06.532Z,5.10
2023-08-24T02:21:06.506Z,5.30
2023-08-24T02:22:06.516Z,5.40
2023-08-24T02:23:06.484Z,5.10
2023-08-24T02:24:06.490Z,5.50
2023-08-24T02:25:06.465Z,5.30
2023-08-24T02:26:06.472Z,5.00
2023-08-24T02:27:06.439Z,4.80
2023-08-24T02:28:06.418Z,5.50
2023-08-24T02:29:06.495Z,5.30
2023-08-24T02:30:06.385Z,5.30
2023-08-24T02:31:06.450Z,5.20
2023-08-24T02:32:06.409Z,5.70
2023-08-24T02:33:06.378Z,5.20
2023-08-24T02:34:06.344Z,5.30
2023-08-24T02:35:06.340Z,5.60
2023-08-24T02:36:06.318Z,5.80
2023-08-24T02:37:06.328Z,5.80
2023-08-24T02:38:06.286Z,5.30
2023-08-24T02:39:06.303Z,5.10
2023-08-24T02:40:06.282Z,5.60
2023-08-24T02:41:06.266Z,5.60
2023-08-24T02:42:06.250Z,5.20
2023-08-24T02:43:06.216Z,5.70
2023-08-24T02:44:06.219Z,5.60
2023-08-24T02:45:06.185Z,5.90
2023-08-24T02:46:06.196Z,5.40
2023-08-24T02:47:06.174Z,5.10
2023-08-24T02:48:06.254Z,5.70
2023-08-24T02:49:06.130Z,5.60
2023-08-24T02:50:06.160Z,5.40
2023-08-24T02:51:06.251Z,5.10
2023-08-24T02:52:06.091Z,5.40
2023-08-24T02:53:06.100Z,5.50
2023-08-24T02:54:06.052Z,5.30
2023-08-24T02:55:06.032Z,5.70
2023-08-24T02:56:06.039Z,5.50
2023-08-24T02:57:06.011Z,5.50
2023-08-24T02:58:06.008Z,5.70
2023-08-24T02:59:05.984Z,5.20
2023-08-24T03:00:05.983Z,5.30
2023-08-24T03:01:05.988Z,5.80
2023-08-24T03:02:05.951Z,5.20
2023-08-24T03:03:05.986Z,5.30
2023-08-24T03:04:05.956Z,5.20
2023-08-24T03:05:05.911Z,5.50
2023-08-24T03:06:05.886Z,5.40
2023-08-24T03:07:05.872Z,5.50
2023-08-24T03:08:05.895Z,5.30
2023-08-24T03:09:05.855Z,5.60
2023-08-24T03:10:05.862Z,5.70
2023-08-24T03:11:05.825Z,5.90
2023-08-24T03:12:05.814Z,5.60
2023-08-24T03:13:05.794Z,5.60
2023-08-24T03:14:05.789Z,5.50
2023-08-24T03:15:05.774Z,5.60
2023-08-24T03:16:05.772Z,5.60
2023-08-24T03:17:05.805Z,5.90
2023-08-24T03:18:05.741Z,5.50
2023-08-24T03:19:05.726Z,5.80
2023-08-24T03:20:05.720Z,6.10
2023-08-24T03:21:05.716Z,5.80
2023-08-24T03:22:05.688Z,5.50
2023-08-24T03:23:05.677Z,5.70
2023-08-24T03:24:05.654Z,5.60
2023-08-24T03:25:05.642Z,5.70
2023-08-24T03:26:05.634Z,5.30
2023-08-24T03:27:05.622Z,5.60
2023-08-24T03:28:05.599Z,5.50
2023-08-24T03:29:05.598Z,5.30
2023-08-24T03:30:05.591Z,5.50
2023-08-24T03:31:05.625Z,6.30
2023-08-24T03:32:05.545Z,5.80
2023-08-24T03:33:05.618Z,6.30
2023-08-24T03:34:05.524Z,5.70
2023-08-24T03:35:05.515Z,5.60
2023-08-24T03:36:05.510Z,5.90
2023-08-24T03:37:05.492Z,5.70
2023-08-24T03:38:05.466Z,5.90
2023-08-24T03:39:05.471Z,6.00
2023-08-24T03:40:05.438Z,6.20
2023-08-24T03:41:05.439Z,6.60
2023-08-24T03:42:05.407Z,6.20
2023-08-24T03:43:05.404Z,6.20
2023-08-24T03:44:05.384Z,5.80
2023-08-24T03:45:05.371Z,6.10
2023-08-24T03:46:05.580Z,5.80
2023-08-24T03:47:11.371Z,5.90
2023-08-24T03:48:05.370Z,6.00
2023-08-24T03:49:06.984Z,5.70
2023-08-24T03:50:05.379Z,5.70
2023-08-24T03:51:05.288Z,6.10
2023-08-24T03:52:05.280Z,6.00
2023-08-24T03:53:05.272Z,6.20
2023-08-24T03:54:05.276Z,6.70
2023-08-24T03:55:05.267Z,6.20
2023-08-24T03:56:05.215Z,5.90
2023-08-24T03:57:05.203Z,6.10
2023-08-24T03:58:05.231Z,6.40
2023-08-24T03:59:05.181Z,6.00
2023-08-24T04:00:05.196Z,6.10
2023-08-24T04:01:05.172Z,5.60
2023-08-24T04:02:05.144Z,6.10
2023-08-24T04:03:05.190Z,5.70
2023-08-24T04:04:05.204Z,6.00
2023-08-24T04:05:05.144Z,6.10
2023-08-24T04:06:05.106Z,5.80
2023-08-24T04:07:05.084Z,6.00
2023-08-24T04:08:05.089Z,6.20
2023-08-24T04:09:05.161Z,6.30
2023-08-24T04:10:05.076Z,6.20
2023-08-24T04:11:05.049Z,6.40
2023-08-24T04:12:05.712Z,6.10
2023-08-24T04:13:05.161Z,5.70
2023-08-24T04:14:05.080Z,6.00
2023-08-24T04:15:05.012Z,6.10
2023-08-24T04:16:05.180Z,6.10
2023-08-24T04:17:04.983Z,6.50
2023-08-24T04:18:05.055Z,6.30
2023-08-24T04:19:04.942Z,6.20
2023-08-24T04:20:04.941Z,6.20
2023-08-24T04:21:04.973Z,6.10
2023-08-24T04:22:04.908Z,6.60
2023-08-24T04:23:07.498Z,6.50
2023-08-24T04:24:04.912Z,8.90
2023-08-24T04:25:04.891Z,8.20
2023-08-24T04:26:04.846Z,10.70
2023-08-24T04:27:04.821Z,9.10
2023-08-24T04:28:04.844Z,7.50
2023-08-24T04:29:04.825Z,7.10
2023-08-24T04:30:04.792Z,8.70
2023-08-24T04:31:04.855Z,9.50
2023-08-24T04:32:04.813Z,11.90
2023-08-24T04:33:04.783Z,10.30
2023-08-24T04:34:04.747Z,9.50
2023-08-24T04:35:04.729Z,7.40
2023-08-24T04:36:04.737Z,6.40
2023-08-24T04:37:04.718Z,7.30
2023-08-24T04:38:04.704Z,7.30
2023-08-24T04:39:04.755Z,7.50
2023-08-24T04:40:04.648Z,6.80
2023-08-24T04:41:04.657Z,6.50
2023-08-24T04:42:04.664Z,6.60
2023-08-24T04:43:04.622Z,6.40
2023-08-24T04:44:04.613Z,6.30
2023-08-24T04:45:04.684Z,6.20
2023-08-24T04:46:04.617Z,6.00
2023-08-24T04:47:04.566Z,6.60
2023-08-24T04:48:04.714Z,6.30
2023-08-24T04:49:04.705Z,6.10
2023-08-24T04:50:04.704Z,6.10
2023-08-24T04:51:04.538Z,6.40
2023-08-24T04:52:04.563Z,6.00
2023-08-24T04:53:04.481Z,6.00
2023-08-24T04:54:04.477Z,6.10
2023-08-24T04:55:04.486Z,6.40
2023-08-24T04:56:04.454Z,6.20
2023-08-24T04:57:04.480Z,6.70
2023-08-24T04:58:04.447Z,6.90
2023-08-24T04:59:04.434Z,6.20
2023-08-24T05:00:04.392Z,6.20
2023-08-24T05:01:04.420Z,6.20
2023-08-24T05:02:05.061Z,6.20
2023-08-24T05:03:04.406Z,6.50
2023-08-24T05:04:04.346Z,6.00
2023-08-24T05:05:04.332Z,7.10
2023-08-24T05:06:04.331Z,6.60
2023-08-24T05:07:04.334Z,6.30
2023-08-24T05:08:04.290Z,6.50
2023-08-24T05:09:04.342Z,6.60
2023-08-24T05:10:04.261Z,6.80
2023-08-24T05:11:04.254Z,6.50
2023-08-24T05:12:04.262Z,6.90
2023-08-24T05:13:04.274Z,6.80
2023-08-24T05:14:04.259Z,6.40
2023-08-24T05:15:04.207Z,6.70
2023-08-24T05:16:04.233Z,6.60
2023-08-24T05:17:04.212Z,6.50
2023-08-24T05:18:04.199Z,7.10
2023-08-24T05:19:04.152Z,6.90
2023-08-24T05:20:04.132Z,6.60
2023-08-24T05:21:04.110Z,6.90
2023-08-24T05:22:04.100Z,6.60
2023-08-24T05:23:04.114Z,6.90
2023-08-24T05:24:04.111Z,7.00
2023-08-24T05:25:04.197Z,6.50
2023-08-24T05:26:04.059Z,6.40
2023-08-24T05:27:04.036Z,6.90
2023-08-24T05:28:04.026Z,6.40
2023-08-24T05:29:04.004Z,6.90
2023-08-24T05:30:04.037Z,7.10
2023-08-24T05:31:05.736Z,6.60
2023-08-24T05:32:04.194Z,7.40
2023-08-24T05:33:04.146Z,7.30
2023-08-24T05:34:04.043Z,7.10
2023-08-24T05:35:03.994Z,7.30
2023-08-24T05:36:03.954Z,6.90
2023-08-24T05:37:03.942Z,7.20
2023-08-24T05:38:03.990Z,6.70
2023-08-24T05:39:06.518Z,7.20
2023-08-24T05:40:05.285Z,7.50
2023-08-24T05:41:03.869Z,7.30
2023-08-24T05:42:03.863Z,7.40
2023-08-24T05:43:03.871Z,7.10
2023-08-24T05:44:03.856Z,6.70
2023-08-24T05:45:03.808Z,7.00
2023-08-24T05:46:03.840Z,7.10
2023-08-24T05:47:03.784Z,7.40
2023-08-24T05:48:03.818Z,7.10
2023-08-24T05:49:03.755Z,6.90
2023-08-24T05:50:03.736Z,7.10
2023-08-24T05:51:03.729Z,6.60
2023-08-24T05:52:03.706Z,7.30
2023-08-24T05:53:03.703Z,7.10
2023-08-24T05:54:03.710Z,7.10
2023-08-24T05:55:03.729Z,7.00
2023-08-24T05:56:03.660Z,7.10
2023-08-24T05:57:03.652Z,6.80
2023-08-24T05:58:03.640Z,6.80
2023-08-24T05:59:06.176Z,6.80
2023-08-24T06:00:03.621Z,7.20
2023-08-24T06:01:03.602Z,7.00
2023-08-24T06:02:03.629Z,6.70
2023-08-24T06:03:03.582Z,7.00
2023-08-24T06:04:03.634Z,6.70
2023-08-24T06:05:03.565Z,6.40
2023-08-24T06:06:03.536Z,6.90
2023-08-24T06:07:03.524Z,7.00
2023-08-24T06:08:03.520Z,6.40
2023-08-24T06:09:03.495Z,6.60
2023-08-24T06:10:03.499Z,6.70
2023-08-24T06:11:03.490Z,6.50
2023-08-24T06:12:03.466Z,6.50
2023-08-24T06:13:03.458Z,6.70
2023-08-24T06:14:03.436Z,6.90
2023-08-24T06:15:03.441Z,6.50
2023-08-24T06:16:03.442Z,6.20
2023-08-24T06:17:03.397Z,6.40
2023-08-24T06:18:03.412Z,6.30
2023-08-24T06:19:03.393Z,6.60
2023-08-24T06:20:03.383Z,6.70
2023-08-24T06:21:03.375Z,6.40
2023-08-24T06:22:03.330Z,6.60
2023-08-24T06:23:03.334Z,6.70
2023-08-24T06:24:03.338Z,7.00
2023-08-24T06:25:03.305Z,7.00
2023-08-24T06:26:03.294Z,6.70
2023-08-24T06:27:03.269Z,6.50
2023-08-24T06:28:03.271Z,6.30
2023-08-24T06:29:03.242Z,6.40
2023-08-24T06:30:03.259Z,7.10
2023-08-24T06:31:03.226Z,6.60
2023-08-24T06:32:03.230Z,6.70
2023-08-24T06:33:03.226Z,6.10
2023-08-24T06:34:03.184Z,7.10
2023-08-24T06:35:03.543Z,6.40
2023-08-24T06:36:03.346Z,6.40
2023-08-24T06:37:03.237Z,6.80
2023-08-24T06:38:03.246Z,6.40
2023-08-24T06:39:03.231Z,6.60
2023-08-24T06:40:03.584Z,6.30
2023-08-24T06:41:03.103Z,6.80
2023-08-24T06:42:03.108Z,6.70
2023-08-24T06:43:03.146Z,6.20
2023-08-24T06:44:03.086Z,6.60
2023-08-24T06:45:03.059Z,6.30
2023-08-24T06:46:03.140Z,6.10
2023-08-24T06:47:05.573Z,6.60
2023-08-24T06:48:03.020Z,6.10
2023-08-24T06:49:03.009Z,6.50
2023-08-24T06:50:03.034Z,6.20
2023-08-24T06:51:02.998Z,6.60
2023-08-24T06:52:02.997Z,6.00
2023-08-24T06:53:03.175Z,6.00
2023-08-24T06:54:02.945Z,6.30
2023-08-24T06:55:02.938Z,5.90
2023-08-24T06:56:02.924Z,5.80
2023-08-24T06:57:02.939Z,5.80
2023-08-24T06:58:03.010Z,5.90
2023-08-24T06:59:09.649Z,6.20
2023-08-24T07:00:02.979Z,5.80
2023-08-24T07:01:03.148Z,5.50
2023-08-24T07:02:02.877Z,5.90
2023-08-24T07:03:02.856Z,5.50
2023-08-24T07:04:02.815Z,5.70
2023-08-24T07:05:02.810Z,6.80
2023-08-24T07:06:02.815Z,6.10
2023-08-24T07:07:02.805Z,8.60
2023-08-24T07:08:02.751Z,18.90
2023-08-24T07:09:02.734Z,12.20
2023-08-24T07:10:02.739Z,20.40
2023-08-24T07:11:02.722Z,18.90
2023-08-24T07:12:02.709Z,8.40
2023-08-24T07:13:02.713Z,6.20
2023-08-24T07:14:02.711Z,8.10
2023-08-24T07:15:02.658Z,8.50
2023-08-24T07:16:02.752Z,6.00
2023-08-24T07:17:02.628Z,6.20
2023-08-24T07:18:02.694Z,5.70
2023-08-24T07:19:02.653Z,5.70
2023-08-24T07:20:02.612Z,6.40
2023-08-24T07:21:02.597Z,6.40
2023-08-24T07:22:02.609Z,6.00
2023-08-24T07:23:02.544Z,6.50
2023-08-24T07:24:02.548Z,5.70
2023-08-24T07:25:04.785Z,6.30
2023-08-24T07:26:02.543Z,6.10
2023-08-24T07:27:02.510Z,6.20
2023-08-24T07:28:02.520Z,6.60
2023-08-24T07:29:02.489Z,5.70
2023-08-24T07:30:02.541Z,5.80
2023-08-24T07:31:02.554Z,5.70
2023-08-24T07:32:02.569Z,6.00
2023-08-24T07:33:02.624Z,5.70
2023-08-24T07:34:02.428Z,6.20
2023-08-24T07:35:02.408Z,5.70
2023-08-24T07:36:02.448Z,6.50
2023-08-24T07:37:02.384Z,5.90
2023-08-24T07:38:02.367Z,5.60
2023-08-24T07:39:02.367Z,6.00
2023-08-24T07:40:02.338Z,5.30
2023-08-24T07:41:02.335Z,6.10
2023-08-24T07:42:02.343Z,5.70
2023-08-24T07:43:02.317Z,5.60
2023-08-24T07:44:02.309Z,5.30
2023-08-24T07:45:02.279Z,5.60
2023-08-24T07:46:02.454Z,5.50
2023-08-24T07:47:02.268Z,5.60
2023-08-24T07:48:02.385Z,5.70
2023-08-24T07:49:02.224Z,5.90
2023-08-24T07:50:02.242Z,5.70
2023-08-24T07:51:02.201Z,5.60
2023-08-24T07:52:02.202Z,5.80
2023-08-24T07:53:02.223Z,5.70
2023-08-24T07:54:02.163Z,6.00
2023-08-24T07:55:02.168Z,5.90
2023-08-24T07:56:02.151Z,5.80
2023-08-24T07:57:02.151Z,5.10
2023-08-24T07:58:02.157Z,5.80
2023-08-24T07:59:02.125Z,5.50
2023-08-24T08:00:02.092Z,5.60
2023-08-24T08:01:02.086Z,5.60
2023-08-24T08:02:02.137Z,5.60
2023-08-24T08:03:03.263Z,5.70
2023-08-24T08:04:02.079Z,5.40
2023-08-24T08:05:02.045Z,5.50
2023-08-24T08:06:02.027Z,5.30
2023-08-24T08:07:02.000Z,5.40
2023-08-24T08:08:02.015Z,5.40
2023-08-24T08:09:02.012Z,5.50
2023-08-24T08:10:01.989Z,5.70
2023-08-24T08:11:01.965Z,5.70
2023-08-24T08:12:01.936Z,5.00
2023-08-24T08:13:01.929Z,5.60
2023-08-24T08:14:01.911Z,5.20
2023-08-24T08:15:01.903Z,5.70
2023-08-24T08:16:01.964Z,5.40
2023-08-24T08:17:01.870Z,5.30
2023-08-24T08:18:01.945Z,5.10
2023-08-24T08:19:01.869Z,5.20
2023-08-24T08:20:01.849Z,5.50
2023-08-24T08:21:01.821Z,5.40
2023-08-24T08:22:01.816Z,5.10
2023-08-24T08:23:01.807Z,5.50
2023-08-24T08:24:01.810Z,5.50
2023-08-24T08:25:01.770Z,5.20
2023-08-24T08:26:01.775Z,5.60
2023-08-24T08:27:01.761Z,5.20
2023-08-24T08:28:01.735Z,4.80
2023-08-24T08:29:01.748Z,5.30
2023-08-24T08:30:01.720Z,5.40
2023-08-24T08:31:01.748Z,5.30
2023-08-24T08:32:01.879Z,5.10
2023-08-24T08:33:01.713Z,5.30
2023-08-24T08:34:01.690Z,5.20
2023-08-24T08:35:01.642Z,5.10
2023-08-24T08:36:01.642Z,5.70
2023-08-24T08:37:01.616Z,5.00
2023-08-24T08:38:01.607Z,5.70
2023-08-24T08:39:01.597Z,5.20
2023-08-24T08:40:01.643Z,5.10
2023-08-24T08:41:01.567Z,5.20
2023-08-24T08:42:01.551Z,5.20
2023-08-24T08:43:01.552Z,5.40
2023-08-24T08:44:01.531Z,5.10
2023-08-24T08:45:01.532Z,4.70
2023-08-24T08:46:01.661Z,4.90
2023-08-24T08:47:01.514Z,5.50
2023-08-24T08:48:01.505Z,5.40
2023-08-24T08:49:01.469Z,5.40
2023-08-24T08:50:01.447Z,5.10
2023-08-24T08:51:01.427Z,5.60
2023-08-24T08:52:01.418Z,5.30
2023-08-24T08:53:01.417Z,5.40
2023-08-24T08:54:01.411Z,5.40
2023-08-24T08:55:01.376Z,4.90
2023-08-24T08:56:01.371Z,4.80
2023-08-24T08:57:01.355Z,4.90
2023-08-24T08:58:01.330Z,4.60
2023-08-24T08:59:01.379Z,4.90
2023-08-24T09:00:01.310Z,5.20
2023-08-24T09:01:01.337Z,4.90
2023-08-24T09:02:01.291Z,5.00
2023-08-24T09:03:01.374Z,5.00
2023-08-24T09:04:01.301Z,5.60
2023-08-24T09:05:01.324Z,5.00
2023-08-24T09:06:01.237Z,5.10
2023-08-24T09:07:01.227Z,5.20
2023-08-24T09:08:01.221Z,4.60
2023-08-24T09:09:01.208Z,4.40
2023-08-24T09:10:01.193Z,5.10
2023-08-24T09:11:01.211Z,5.40
2023-08-24T09:12:01.168Z,5.10
2023-08-24T09:13:01.161Z,5.50
2023-08-24T09:14:01.192Z,5.10
2023-08-24T09:15:01.177Z,4.90
2023-08-24T09:16:01.187Z,5.10
2023-08-24T09:17:01.133Z,5.10
2023-08-24T09:18:01.120Z,5.10
2023-08-24T09:19:01.069Z,5.00
2023-08-24T09:20:01.096Z,5.10
2023-08-24T09:21:01.045Z,5.00
2023-08-24T09:22:01.030Z,5.00
2023-08-24T09:23:01.015Z,5.10
2023-08-24T09:24:01.021Z,5.10
2023-08-24T09:25:01.020Z,5.30
2023-08-24T09:26:01.046Z,5.00
2023-08-24T09:27:00.972Z,5.00
2023-08-24T09:28:00.946Z,5.40
2023-08-24T09:29:00.944Z,5.20
2023-08-24T09:30:00.944Z,5.20
2023-08-24T09:31:00.943Z,5.30
2023-08-24T09:32:00.915Z,4.80
2023-08-24T09:33:00.906Z,4.80
2023-08-24T09:34:00.934Z,4.80
2023-08-24T09:35:00.866Z,4.80
2023-08-24T09:36:00.848Z,4.80
2023-08-24T09:37:00.828Z,5.00
2023-08-24T09:38:00.881Z,5.00
2023-08-24T09:39:00.821Z,4.80
2023-08-24T09:40:00.793Z,4.90
2023-08-24T09:41:00.781Z,4.40
2023-08-24T09:42:00.763Z,4.50
2023-08-24T09:43:00.748Z,4.40
2023-08-24T09:44:00.738Z,4.60
2023-08-24T09:45:00.772Z,4.70
2023-08-24T09:46:00.718Z,4.50
2023-08-24T09:47:57.014Z,4.30
2023-08-24T09:48:57.882Z,4.60
2023-08-24T09:49:57.877Z,4.40
2023-08-24T09:50:57.896Z,4.30
2023-08-24T09:51:57.863Z,4.40
2023-08-24T09:52:57.857Z,4.50
2023-08-24T09:53:57.815Z,4.20
2023-08-24T09:54:57.818Z,4.10
2023-08-24T09:55:57.794Z,4.40
2023-08-24T09:56:57.774Z,4.20
2023-08-24T09:57:57.764Z,4.40
2023-08-24T09:58:57.772Z,4.00
2023-08-24T09:59:57.768Z,4.30
2023-08-24T10:00:57.712Z,4.30
2023-08-24T10:01:57.753Z,4.10
2023-08-24T10:02:57.981Z,4.10
2023-08-24T10:03:57.759Z,4.50
2023-08-24T10:04:57.714Z,4.10
2023-08-24T10:06:00.839Z,4.50
2023-08-24T10:06:57.636Z,4.20
2023-08-24T10:07:57.648Z,4.50
2023-08-24T10:08:57.616Z,4.00
2023-08-24T10:09:57.618Z,4.00
2023-08-24T10:10:57.605Z,3.80
2023-08-24T10:11:57.595Z,4.00
2023-08-24T10:12:57.558Z,4.20
2023-08-24T10:13:57.545Z,4.30
2023-08-24T10:14:57.535Z,4.00
2023-08-24T10:15:57.573Z,4.20
2023-08-24T10:16:57.518Z,4.20
2023-08-24T10:17:57.544Z,4.30
2023-08-24T10:18:57.470Z,4.10
2023-08-24T10:19:57.477Z,4.20
2023-08-24T10:20:57.487Z,4.30
2023-08-24T10:21:57.450Z,4.40
2023-08-24T10:22:57.416Z,4.20
2023-08-24T10:23:57.414Z,4.40
2023-08-24T10:24:57.400Z,4.20
2023-08-24T10:25:57.411Z,4.40
2023-08-24T10:26:57.386Z,4.40
2023-08-24T10:27:57.389Z,4.20
2023-08-24T10:28:57.364Z,4.60
2023-08-24T10:29:57.339Z,4.00
2023-08-24T10:30:57.328Z,4.10
2023-08-24T10:31:57.393Z,4.00
2023-08-24T10:32:57.453Z,4.30
2023-08-24T10:33:57.288Z,4.00
2023-08-24T10:34:57.269Z,4.10
2023-08-24T10:35:57.257Z,4.00
2023-08-24T10:36:57.276Z,4.50
2023-08-24T10:37:57.231Z,4.30
2023-08-24T10:38:57.216Z,4.00
2023-08-24T10:39:57.204Z,3.90
2023-08-24T10:40:57.188Z,3.50
2023-08-24T10:41:57.227Z,4.20
2023-08-24T10:42:57.165Z,4.00
2023-08-24T10:43:57.165Z,3.60
2023-08-24T10:44:57.167Z,4.20
2023-08-24T10:45:57.250Z,3.80
2023-08-24T10:46:57.131Z,4.30
2023-08-24T10:47:57.114Z,3.80
2023-08-24T10:48:57.101Z,3.80
2023-08-24T10:49:57.164Z,3.60
2023-08-24T10:50:57.059Z,3.50
2023-08-24T10:51:57.078Z,3.70
2023-08-24T10:52:57.026Z,3.30
2023-08-24T10:53:57.041Z,3.90
2023-08-24T10:54:57.041Z,4.30
2023-08-24T10:55:56.993Z,4.10
2023-08-24T10:56:56.984Z,4.10
2023-08-24T10:57:56.970Z,4.00
2023-08-24T10:58:56.960Z,4.40
2023-08-24T10:59:56.941Z,4.30
2023-08-24T11:00:56.994Z,4.00
2023-08-24T11:01:56.934Z,3.80
2023-08-24T11:03:00.564Z,4.00
2023-08-24T11:03:56.964Z,3.90
2023-08-24T11:04:56.903Z,3.40
2023-08-24T11:05:56.929Z,3.40
2023-08-24T11:06:56.876Z,3.50
2023-08-24T11:07:56.841Z,3.30
2023-08-24T11:08:56.840Z,4.60
2023-08-24T11:09:56.835Z,3.70
2023-08-24T11:10:56.809Z,3.50
2023-08-24T11:11:56.803Z,4.10
2023-08-24T11:12:56.778Z,3.80
2023-08-24T11:13:56.757Z,3.80
2023-08-24T11:14:56.750Z,3.80
2023-08-24T11:15:56.759Z,3.60
2023-08-24T11:16:56.735Z,3.70
2023-08-24T11:17:56.764Z,3.80
2023-08-24T11:18:56.695Z,3.60
2023-08-24T11:19:56.696Z,3.50
2023-08-24T11:20:56.685Z,3.40
2023-08-24T11:21:56.681Z,3.50
2023-08-24T11:22:56.646Z,3.60
2023-08-24T11:23:56.644Z,3.10
2023-08-24T11:24:56.616Z,3.20
2023-08-24T11:25:56.603Z,3.30
2023-08-24T11:26:56.620Z,3.30
2023-08-24T11:27:56.613Z,3.40
2023-08-24T11:28:56.576Z,3.20
2023-08-24T11:29:56.571Z,3.40
2023-08-24T11:30:56.639Z,3.30
2023-08-24T11:31:56.554Z,3.50
2023-08-24T11:32:56.530Z,3.50
2023-08-24T11:33:56.504Z,3.70
2023-08-24T11:34:56.499Z,3.90
2023-08-24T11:35:56.544Z,3.20
2023-08-24T11:36:56.453Z,3.70
2023-08-24T11:37:56.467Z,3.80
2023-08-24T11:38:56.448Z,3.30
2023-08-24T11:39:56.439Z,3.20
2023-08-24T11:40:56.399Z,3.60
2023-08-24T11:41:56.396Z,3.70
2023-08-24T11:42:56.454Z,3.70
2023-08-24T11:43:57.949Z,3.70
2023-08-24T11:44:56.373Z,2.90
2023-08-24T11:45:56.360Z,3.00
2023-08-24T11:46:56.355Z,3.30
2023-08-24T11:47:56.383Z,3.30
2023-08-24T11:48:56.309Z,3.60
2023-08-24T11:49:56.301Z,3.00
2023-08-24T11:50:56.288Z,3.00
2023-08-24T11:51:56.265Z,2.70
2023-08-24T11:52:56.269Z,3.30
2023-08-24T11:53:56.232Z,2.90
2023-08-24T11:54:56.221Z,2.90
2023-08-24T11:56:05.753Z,2.90
2023-08-24T11:56:56.203Z,2.70
2023-08-24T11:57:56.232Z,3.60
2023-08-24T11:58:56.207Z,3.40
2023-08-24T11:59:56.171Z,3.10
2023-08-24T12:00:56.177Z,3.00
2023-08-24T12:01:56.145Z,3.40
2023-08-24T12:02:56.215Z,3.50
2023-08-24T12:03:56.196Z,2.80
2023-08-24T12:04:56.099Z,3.50
2023-08-24T12:05:56.107Z,3.20
2023-08-24T12:06:56.074Z,3.60
2023-08-24T12:07:56.131Z,3.30
2023-08-24T12:08:56.065Z,2.90
2023-08-24T12:09:56.039Z,2.90
2023-08-24T12:10:56.024Z,2.70
2023-08-24T12:11:56.013Z,2.70
2023-08-24T12:12:56.003Z,3.10
2023-08-24T12:13:55.999Z,3.20
2023-08-24T12:14:55.965Z,2.70
2023-08-24T12:15:55.967Z,3.20
2023-08-24T12:16:55.968Z,3.10
2023-08-24T12:17:55.957Z,3.00
2023-08-24T12:18:55.925Z,3.30
2023-08-24T12:19:55.925Z,2.40
2023-08-24T12:20:55.906Z,3.00
2023-08-24T12:21:55.919Z,3.00
2023-08-24T12:22:55.867Z,2.90
2023-08-24T12:23:55.869Z,3.00
2023-08-24T12:24:55.849Z,3.20
2023-08-24T12:25:55.835Z,3.40
2023-08-24T12:26:55.809Z,2.80
2023-08-24T12:27:55.813Z,2.80
2023-08-24T12:28:55.848Z,2.80
2023-08-24T12:29:55.814Z,3.10
2023-08-24T12:30:55.854Z,3.00
2023-08-24T12:31:55.761Z,3.00
2023-08-24T12:32:55.983Z,3.10
2023-08-24T12:33:55.751Z,3.10
2023-08-24T12:34:55.830Z,2.70
2023-08-24T12:35:55.736Z,3.00
2023-08-24T12:36:56.381Z,3.30
2023-08-24T12:37:55.670Z,3.00
2023-08-24T12:38:55.680Z,2.60
2023-08-24T12:39:55.676Z,3.50
2023-08-24T12:40:55.656Z,2.90
2023-08-24T12:41:55.621Z,2.80
2023-08-24T12:42:55.655Z,2.90
2023-08-24T12:43:55.672Z,3.00
2023-08-24T12:44:55.597Z,3.40
2023-08-24T12:45:55.571Z,3.20
2023-08-24T12:46:55.574Z,3.20
2023-08-24T12:47:55.892Z,3.30
2023-08-24T12:48:56.961Z,3.50
2023-08-24T12:49:55.562Z,2.90
2023-08-24T12:50:55.502Z,3.40
2023-08-24T12:51:55.493Z,2.80
2023-08-24T12:52:55.473Z,2.90
2023-08-24T12:53:55.503Z,2.90
2023-08-24T12:54:55.450Z,3.40
2023-08-24T12:55:55.438Z,2.80
2023-08-24T12:56:55.433Z,2.70
2023-08-24T12:57:55.427Z,2.80
2023-08-24T12:58:55.401Z,3.00
2023-08-24T12:59:55.693Z,2.90
2023-08-24T13:00:55.396Z,3.10
2023-08-24T13:01:55.355Z,3.60
2023-08-24T13:02:55.374Z,2.80
2023-08-24T13:03:55.327Z,3.60
2023-08-24T13:04:55.857Z,2.90
2023-08-24T13:05:58.959Z,2.90
2023-08-24T13:06:55.291Z,2.80
2023-08-24T13:07:55.278Z,3.10
2023-08-24T13:08:55.280Z,3.10
2023-08-24T13:09:55.262Z,3.20
2023-08-24T13:10:55.248Z,2.80
2023-08-24T13:11:55.227Z,3.30
2023-08-24T13:12:55.215Z,2.90
2023-08-24T13:13:55.212Z,2.80
2023-08-24T13:14:55.243Z,3.20
2023-08-24T13:15:56.634Z,2.80
2023-08-24T13:16:55.234Z,3.10
2023-08-24T13:17:55.319Z,3.00
2023-08-24T13:18:55.146Z,3.60